KQA610 HKJK-HKMO
Flight info
| Callsign | KQA610 |
|---|---|
| Flight time | 0h 39m |
| Altitude | 31000 |
| Route | ATUDU1D UVOVA UQ135 NEREV NEREV3A |
| Aircraft | E190/M-SDE1E2E3FGHIJ2J3J4J5M1RWXYZ/LB1D1 |
Departure
| Time | 2026-05-05 16:08 |
|---|---|
| Airport | Jomo Kenyatta International Airport (HKJK) |
Arrival
| Time | 2026-05-05 16:48 |
|---|---|
| Airport | Moi International Airport (HKMO) |
| Time | Latitude | Longitude | Altitude | Speed | Heading |
|---|---|---|---|---|---|
| 2026-05-05 15:52 | -1.32929 | 36.92645 | 5323 ft | 0 kts | 229° |
| 2026-05-05 15:54 | -1.32915 | 36.92661 | 5313 ft | 4 kts | 229° |
| 2026-05-05 15:54 | -1.32897 | 36.92681 | 5313 ft | 4 kts | 229° |
| 2026-05-05 15:54 | -1.32883 | 36.92698 | 5322 ft | 4 kts | 245° |
| 2026-05-05 15:54 | -1.32879 | 36.92721 | 5315 ft | 4 kts | 296° |
| 2026-05-05 15:55 | -1.32895 | 36.92740 | 5322 ft | 4 kts | 325° |
| 2026-05-05 15:55 | -1.32919 | 36.92753 | 5318 ft | 4 kts | 337° |
| 2026-05-05 15:55 | -1.32928 | 36.92756 | 5314 ft | 0 kts | 335° |
| 2026-05-05 15:59 | -1.32922 | 36.92754 | 5318 ft | 2 kts | 335° |
| 2026-05-05 15:59 | -1.32903 | 36.92745 | 5315 ft | 4 kts | 334° |
| 2026-05-05 15:59 | -1.32876 | 36.92727 | 5315 ft | 5 kts | 322° |
| 2026-05-05 15:59 | -1.32848 | 36.92702 | 5320 ft | 6 kts | 315° |
| 2026-05-05 16:00 | -1.32830 | 36.92682 | 5323 ft | 1 kts | 310° |
| 2026-05-05 16:00 | -1.32825 | 36.92676 | 5323 ft | 2 kts | 309° |
| 2026-05-05 16:00 | -1.32813 | 36.92661 | 5323 ft | 4 kts | 309° |
| 2026-05-05 16:00 | -1.32790 | 36.92622 | 5323 ft | 9 kts | 294° |
| 2026-05-05 16:01 | -1.32769 | 36.92552 | 5323 ft | 12 kts | 281° |
| 2026-05-05 16:01 | -1.32767 | 36.92458 | 5314 ft | 14 kts | 262° |
| 2026-05-05 16:01 | -1.32799 | 36.92365 | 5320 ft | 14 kts | 241° |
| 2026-05-05 16:01 | -1.32858 | 36.92288 | 5315 ft | 11 kts | 229° |
| 2026-05-05 16:02 | -1.32843 | 36.92242 | 5316 ft | 9 kts | 317° |
| 2026-05-05 16:02 | -1.32787 | 36.92196 | 5324 ft | 12 kts | 304° |
| 2026-05-05 16:02 | -1.32806 | 36.92129 | 5325 ft | 12 kts | 232° |
| 2026-05-05 16:02 | -1.32863 | 36.92052 | 5320 ft | 16 kts | 233° |
| 2026-05-05 16:03 | -1.32901 | 36.91956 | 5331 ft | 14 kts | 282° |
| 2026-05-05 16:03 | -1.32886 | 36.91874 | 5333 ft | 11 kts | 278° |
| 2026-05-05 16:03 | -1.32882 | 36.91847 | 5334 ft | 0 kts | 278° |
| 2026-05-05 16:05 | -1.32881 | 36.91841 | 5338 ft | 2 kts | 278° |
| 2026-05-05 16:05 | -1.32878 | 36.91823 | 5336 ft | 3 kts | 278° |
| 2026-05-05 16:05 | -1.32875 | 36.91802 | 5337 ft | 3 kts | 278° |
| 2026-05-05 16:06 | -1.32873 | 36.91778 | 5336 ft | 4 kts | 271° |
| 2026-05-05 16:06 | -1.32871 | 36.91744 | 5335 ft | 6 kts | 283° |
| 2026-05-05 16:06 | -1.32841 | 36.91708 | 5338 ft | 7 kts | 327° |
| 2026-05-05 16:06 | -1.32797 | 36.91679 | 5337 ft | 8 kts | 326° |
| 2026-05-05 16:07 | -1.32753 | 36.91659 | 5337 ft | 7 kts | 1° |
| 2026-05-05 16:07 | -1.32718 | 36.91694 | 5336 ft | 9 kts | 56° |
| 2026-05-05 16:07 | -1.32673 | 36.91759 | 5331 ft | 22 kts | 53° |
| 2026-05-05 16:07 | -1.32447 | 36.92064 | 5322 ft | 86 kts | 54° |
| 2026-05-05 16:08 | -1.31976 | 36.92710 | 5312 ft | 142 kts | 53° |
| 2026-05-05 16:08 | -1.31298 | 36.93632 | 5438 ft | 180 kts | 55° |
| 2026-05-05 16:08 | -1.30575 | 36.94722 | 6068 ft | 197 kts | 64° |
| 2026-05-05 16:08 | -1.30132 | 36.96092 | 6614 ft | 215 kts | 82° |
| 2026-05-05 16:09 | -1.29993 | 36.97604 | 7231 ft | 226 kts | 90° |
| 2026-05-05 16:09 | -1.30026 | 36.99224 | 7782 ft | 239 kts | 91° |
| 2026-05-05 16:09 | -1.29981 | 37.00920 | 8427 ft | 245 kts | 87° |
| 2026-05-05 16:09 | -1.29816 | 37.02631 | 9118 ft | 252 kts | 83° |
| 2026-05-05 16:10 | -1.29524 | 37.04387 | 9697 ft | 265 kts | 80° |
| 2026-05-05 16:10 | -1.29133 | 37.06291 | 9924 ft | 296 kts | 77° |
| 2026-05-05 16:10 | -1.28616 | 37.08376 | 10273 ft | 324 kts | 77° |
| 2026-05-05 16:10 | -1.28205 | 37.10697 | 10650 ft | 349 kts | 83° |
| 2026-05-05 16:11 | -1.27999 | 37.13130 | 11047 ft | 348 kts | 88° |
| 2026-05-05 16:11 | -1.31398 | 37.19412 | 13656 ft | 364 kts | 133° |
| 2026-05-05 16:12 | -1.33169 | 37.21247 | 14485 ft | 370 kts | 133° |
| 2026-05-05 16:12 | -1.36815 | 37.24947 | 16289 ft | 377 kts | 133° |
| 2026-05-05 16:13 | -1.42473 | 37.30617 | 18647 ft | 391 kts | 134° |
| 2026-05-05 16:13 | -1.44409 | 37.32530 | 19330 ft | 393 kts | 134° |
| 2026-05-05 16:13 | -1.46362 | 37.34458 | 19961 ft | 396 kts | 134° |
| 2026-05-05 16:14 | -1.50323 | 37.38347 | 21158 ft | 402 kts | 134° |
| 2026-05-05 16:14 | -1.54366 | 37.42272 | 22321 ft | 409 kts | 135° |
| 2026-05-05 16:15 | -1.58482 | 37.46247 | 23444 ft | 414 kts | 135° |
| 2026-05-05 16:15 | -1.62649 | 37.50243 | 24346 ft | 420 kts | 135° |
| 2026-05-05 16:16 | -1.66929 | 37.54333 | 25206 ft | 425 kts | 135° |
| 2026-05-05 16:16 | -1.71214 | 37.58398 | 25966 ft | 431 kts | 135° |
| 2026-05-05 16:17 | -1.75601 | 37.62539 | 26702 ft | 435 kts | 136° |
| 2026-05-05 16:17 | -1.77808 | 37.64620 | 27038 ft | 438 kts | 136° |
| 2026-05-05 16:18 | -1.82167 | 37.68927 | 27719 ft | 443 kts | 134° |
| 2026-05-05 16:18 | -1.84341 | 37.71130 | 28054 ft | 446 kts | 134° |
| 2026-05-05 16:18 | -1.88742 | 37.75541 | 28710 ft | 451 kts | 134° |
| 2026-05-05 16:19 | -1.90970 | 37.77764 | 29037 ft | 453 kts | 134° |
| 2026-05-05 16:19 | -1.93198 | 37.79983 | 29497 ft | 451 kts | 134° |
| 2026-05-05 16:19 | -1.97630 | 37.84402 | 30293 ft | 449 kts | 134° |
| 2026-05-05 16:20 | -2.02050 | 37.88810 | 30942 ft | 448 kts | 134° |
| 2026-05-05 16:20 | -2.06479 | 37.93230 | 31120 ft | 458 kts | 134° |
| 2026-05-05 16:21 | -2.11048 | 37.97788 | 31001 ft | 467 kts | 134° |
| 2026-05-05 16:22 | -2.17957 | 38.04684 | 30995 ft | 467 kts | 134° |
| 2026-05-05 16:23 | -2.27160 | 38.13870 | 30981 ft | 466 kts | 134° |
| 2026-05-05 16:23 | -2.34055 | 38.20747 | 30972 ft | 466 kts | 134° |
| 2026-05-05 16:24 | -2.38640 | 38.25326 | 30967 ft | 466 kts | 134° |
| 2026-05-05 16:25 | -2.45522 | 38.32195 | 30955 ft | 465 kts | 134° |
| 2026-05-05 16:25 | -2.52381 | 38.39049 | 30945 ft | 464 kts | 134° |
| 2026-05-05 16:26 | -2.61515 | 38.48168 | 30945 ft | 464 kts | 134° |
| 2026-05-05 16:27 | -2.66074 | 38.52721 | 30940 ft | 463 kts | 134° |
| 2026-05-05 16:27 | -2.70628 | 38.57272 | 30938 ft | 462 kts | 134° |
| 2026-05-05 16:28 | -2.75175 | 38.61814 | 30936 ft | 462 kts | 134° |
| 2026-05-05 16:28 | -2.79721 | 38.66354 | 30940 ft | 462 kts | 134° |
| 2026-05-05 16:29 | -2.84263 | 38.70895 | 30934 ft | 461 kts | 134° |
| 2026-05-05 16:29 | -2.88801 | 38.75431 | 30811 ft | 458 kts | 134° |
| 2026-05-05 16:30 | -2.91037 | 38.77665 | 30407 ft | 449 kts | 134° |
| 2026-05-05 16:30 | -2.93221 | 38.79848 | 29908 ft | 444 kts | 134° |
| 2026-05-05 16:30 | -2.95383 | 38.82010 | 29290 ft | 443 kts | 134° |
| 2026-05-05 16:30 | -2.97590 | 38.84218 | 28667 ft | 445 kts | 134° |
| 2026-05-05 16:31 | -2.99748 | 38.86375 | 28083 ft | 443 kts | 134° |
| 2026-05-05 16:31 | -3.01913 | 38.88540 | 27542 ft | 438 kts | 134° |
| 2026-05-05 16:31 | -3.04062 | 38.90688 | 26910 ft | 434 kts | 134° |
| 2026-05-05 16:31 | -3.06186 | 38.92810 | 26303 ft | 430 kts | 134° |
| 2026-05-05 16:32 | -3.08287 | 38.94911 | 25774 ft | 425 kts | 134° |
| 2026-05-05 16:32 | -3.10377 | 38.97001 | 25204 ft | 422 kts | 134° |
| 2026-05-05 16:32 | -3.12443 | 38.99067 | 24619 ft | 419 kts | 134° |
| 2026-05-05 16:32 | -3.14489 | 39.01114 | 24144 ft | 414 kts | 134° |
| 2026-05-05 16:33 | -3.16533 | 39.03158 | 23407 ft | 415 kts | 134° |
| 2026-05-05 16:33 | -3.18561 | 39.05186 | 22997 ft | 404 kts | 134° |
| 2026-05-05 16:33 | -3.20549 | 39.07172 | 22391 ft | 402 kts | 133° |
| 2026-05-05 16:33 | -3.22517 | 39.09143 | 21945 ft | 401 kts | 133° |
| 2026-05-05 16:34 | -3.24491 | 39.11119 | 21385 ft | 400 kts | 133° |
| 2026-05-05 16:34 | -3.25827 | 39.12441 | 21029 ft | 399 kts | 134° |
| 2026-05-05 16:34 | -3.28475 | 39.14968 | 20320 ft | 397 kts | 135° |
| 2026-05-05 16:34 | -3.30466 | 39.16850 | 19834 ft | 393 kts | 134° |
| 2026-05-05 16:35 | -3.31775 | 39.18094 | 19425 ft | 392 kts | 134° |
| 2026-05-05 16:35 | -3.34403 | 39.20605 | 18360 ft | 395 kts | 134° |
| 2026-05-05 16:35 | -3.35728 | 39.21876 | 17439 ft | 400 kts | 134° |
| 2026-05-05 16:35 | -3.37750 | 39.23818 | 15972 ft | 406 kts | 134° |
| 2026-05-05 16:36 | -3.39801 | 39.25785 | 14877 ft | 404 kts | 135° |
| 2026-05-05 16:36 | -3.41754 | 39.27655 | 14592 ft | 379 kts | 134° |
| 2026-05-05 16:36 | -3.43630 | 39.29450 | 14036 ft | 367 kts | 135° |
| 2026-05-05 16:36 | -3.45449 | 39.31193 | 13471 ft | 357 kts | 135° |
| 2026-05-05 16:37 | -3.47215 | 39.32888 | 13040 ft | 349 kts | 135° |
| 2026-05-05 16:37 | -3.48944 | 39.34545 | 12553 ft | 339 kts | 135° |
| 2026-05-05 16:37 | -3.50616 | 39.36146 | 12133 ft | 327 kts | 135° |
| 2026-05-05 16:37 | -3.52234 | 39.37698 | 11695 ft | 318 kts | 135° |
| 2026-05-05 16:38 | -3.53810 | 39.39208 | 11279 ft | 309 kts | 135° |
| 2026-05-05 16:38 | -3.55343 | 39.40672 | 10874 ft | 301 kts | 135° |
| 2026-05-05 16:38 | -3.56836 | 39.42102 | 10473 ft | 294 kts | 135° |
| 2026-05-05 16:38 | -3.58298 | 39.43502 | 10098 ft | 288 kts | 135° |
| 2026-05-05 16:39 | -3.59733 | 39.44884 | 9714 ft | 285 kts | 135° |
| 2026-05-05 16:39 | -3.60725 | 39.45842 | 9444 ft | 283 kts | 136° |
| 2026-05-05 16:39 | -3.62115 | 39.47179 | 9089 ft | 283 kts | 136° |
| 2026-05-05 16:39 | -3.63538 | 39.48540 | 8706 ft | 282 kts | 136° |
| 2026-05-05 16:40 | -3.64946 | 39.49889 | 8339 ft | 279 kts | 136° |
| 2026-05-05 16:40 | -3.66341 | 39.51235 | 7960 ft | 277 kts | 137° |
| 2026-05-05 16:40 | -3.67731 | 39.52562 | 7603 ft | 277 kts | 137° |
| 2026-05-05 16:40 | -3.69124 | 39.53887 | 7218 ft | 276 kts | 137° |
| 2026-05-05 16:41 | -3.70507 | 39.55210 | 6859 ft | 274 kts | 137° |
| 2026-05-05 16:41 | -3.71874 | 39.56522 | 6587 ft | 269 kts | 137° |
| 2026-05-05 16:41 | -3.73218 | 39.57813 | 6224 ft | 269 kts | 137° |
| 2026-05-05 16:41 | -3.74569 | 39.59111 | 5872 ft | 268 kts | 137° |
| 2026-05-05 16:42 | -3.75909 | 39.60396 | 5510 ft | 267 kts | 138° |
| 2026-05-05 16:42 | -3.77246 | 39.61678 | 5166 ft | 265 kts | 138° |
| 2026-05-05 16:42 | -3.78594 | 39.62929 | 4780 ft | 264 kts | 143° |
| 2026-05-05 16:42 | -3.80131 | 39.63887 | 4457 ft | 258 kts | 155° |
| 2026-05-05 16:43 | -3.81777 | 39.64565 | 4103 ft | 255 kts | 160° |
| 2026-05-05 16:43 | -3.83403 | 39.65186 | 3811 ft | 252 kts | 159° |
| 2026-05-05 16:43 | -3.84999 | 39.65904 | 3459 ft | 251 kts | 155° |
| 2026-05-05 16:43 | -3.86524 | 39.66723 | 3000 ft | 247 kts | 152° |
| 2026-05-05 16:44 | -3.87971 | 39.67553 | 2670 ft | 232 kts | 155° |
| 2026-05-05 16:44 | -3.89451 | 39.67915 | 2469 ft | 208 kts | 188° |
| 2026-05-05 16:44 | -3.90626 | 39.67175 | 2509 ft | 203 kts | 225° |
| 2026-05-05 16:44 | -3.91560 | 39.66165 | 2289 ft | 195 kts | 213° |
| 2026-05-05 16:45 | -3.92691 | 39.65514 | 2030 ft | 185 kts | 203° |
| 2026-05-05 16:45 | -3.93793 | 39.64921 | 1794 ft | 172 kts | 207° |
| 2026-05-05 16:45 | -3.94768 | 39.64323 | 1607 ft | 157 kts | 205° |
| 2026-05-05 16:45 | -3.95686 | 39.63822 | 1397 ft | 145 kts | 205° |
| 2026-05-05 16:46 | -3.96536 | 39.63346 | 1217 ft | 134 kts | 208° |
| 2026-05-05 16:46 | -3.97299 | 39.62907 | 1089 ft | 127 kts | 206° |
| 2026-05-05 16:46 | -3.98094 | 39.62470 | 968 ft | 132 kts | 206° |
| 2026-05-05 16:46 | -3.98902 | 39.62025 | 777 ft | 136 kts | 208° |
| 2026-05-05 16:47 | -3.99750 | 39.61520 | 614 ft | 137 kts | 209° |
| 2026-05-05 16:47 | -4.00548 | 39.61073 | 398 ft | 130 kts | 207° |
| 2026-05-05 16:47 | -4.01334 | 39.60635 | 236 ft | 126 kts | 207° |
| 2026-05-05 16:47 | -4.02001 | 39.60258 | 207 ft | 93 kts | 208° |
| 2026-05-05 16:48 | -4.02418 | 39.60025 | 208 ft | 48 kts | 208° |
| 2026-05-05 16:48 | -4.02644 | 39.59900 | 205 ft | 17 kts | 192° |
| 2026-05-05 16:48 | -4.02716 | 39.59938 | 206 ft | 12 kts | 149° |
| 2026-05-05 16:48 | -4.02790 | 39.59981 | 209 ft | 13 kts | 149° |
| 2026-05-05 16:49 | -4.02848 | 39.60047 | 205 ft | 13 kts | 118° |
| 2026-05-05 16:49 | -4.02896 | 39.60131 | 204 ft | 15 kts | 119° |
| 2026-05-05 16:49 | -4.02951 | 39.60221 | 204 ft | 12 kts | 141° |
| 2026-05-05 16:49 | -4.03003 | 39.60222 | 206 ft | 6 kts | 202° |
| 2026-05-05 16:50 | -4.03036 | 39.60207 | 204 ft | 3 kts | 163° |
| 2026-05-05 16:50 | -4.03043 | 39.60224 | 207 ft | 3 kts | 112° |
| 2026-05-05 16:50 | -4.03052 | 39.60242 | 204 ft | 2 kts | 120° |
| 2026-05-05 16:50 | -4.03058 | 39.60252 | 212 ft | 2 kts | 119° |
| 2026-05-05 16:51 | -4.03063 | 39.60261 | 208 ft | 2 kts | 119° |
| 2026-05-05 16:51 | -4.03069 | 39.60272 | 210 ft | 2 kts | 118° |
| 2026-05-05 16:51 | -4.03071 | 39.60275 | 208 ft | 0 kts | 118° |
| 2026-05-05 17:34 | -1.32929 | 36.92645 | 5308 ft | 0 kts | 118° |